Time;durP1;ratioP1;P1;durP2;ratioP2;P2;SDS_P1;SDS_P2;PMS_P1;PMS_P2;Temp;Humidity;BMP_temperature;BMP_pressure;BME280_temperature;BME280_humidity;BME280_pressure;Samples;Min_cycle;Max_cycle;Signal;HPM_P1;HPM_P2
2021/10/04 00:01:24;;;;;;;;;;;;;;;16.65;76.20;100702.28;5075864;28;2089;-60
2021/10/04 00:03:49;;;;;;;;;;;;;;;16.66;76.16;100713.88;5076116;28;918;-59
2021/10/04 00:06:14;;;;;;;;;;;;;;;16.65;76.36;100715.75;5074807;28;1005;-60
2021/10/04 00:08:39;;;;;;;;;;;;;;;16.64;76.46;100707.81;5075645;28;1061;-60
2021/10/04 00:11:04;;;;;;;;;;;;;;;16.64;76.55;100702.44;5074974;28;1949;-60
2021/10/04 00:13:29;;;;;;;;;;;;;;;16.63;76.41;100703.41;5075117;28;1004;-60
2021/10/04 00:15:54;;;;;;;;;;;;;;;16.64;76.44;100699.75;5076296;28;952;-61
2021/10/04 00:18:20;;;;;;;;;;;;;;;16.63;76.38;100695.34;5075859;28;845;-61
2021/10/04 00:20:45;;;;;;;;;;;;;;;16.63;76.17;100698.03;5075754;28;1914;-61
2021/10/04 00:23:10;;;;;;;;;;;;;;;16.62;76.28;100702.53;5075764;28;1973;-61
2021/10/04 00:25:35;;;;;;;;;;;;;;;16.62;76.14;100709.75;5075645;28;1985;-62
2021/10/04 00:28:00;;;;;;;;;;;;;;;16.62;76.39;100718.69;5075692;28;914;-61
2021/10/04 00:30:25;;;;;;;;;;;;;;;16.61;76.22;100733.13;5075796;28;2118;-61
2021/10/04 00:32:50;;;;;;;;;;;;;;;16.61;76.13;100737.66;5075997;28;1000;-61
2021/10/04 00:35:15;;;;;;;;;;;;;;;16.61;76.36;100740.34;5075454;28;1057;-61
2021/10/04 00:37:40;;;;;;;;;;;;;;;16.60;76.17;100741.31;5075907;28;997;-61
2021/10/04 00:40:05;;;;;;;;;;;;;;;16.60;76.27;100754.78;5075444;28;1984;-60
2021/10/04 00:42:30;;;;;;;;;;;;;;;16.60;76.15;100757.47;5075157;28;1916;-60
2021/10/04 00:44:55;;;;;;;;;;;;;;;16.59;76.26;100753.94;5075918;28;1009;-60
2021/10/04 00:47:20;;;;;;;;;;;;;;;16.58;76.24;100754.06;5075708;28;929;-60
2021/10/04 00:49:45;;;;;;;;;;;;;;;16.58;76.25;100759.44;5075379;28;1956;-60
2021/10/04 00:52:10;;;;;;;;;;;;;;;16.57;76.15;100766.66;5075658;28;993;-59
2021/10/04 00:54:36;;;;;;;;;;;;;;;16.56;76.14;100761.44;5075971;28;977;-60
2021/10/04 00:57:01;;;;;;;;;;;;;;;16.57;76.15;100768.50;5075750;28;861;-59
2021/10/04 00:59:26;;;;;;;;;;;;;;;16.58;76.24;100770.22;5075363;28;2000;-61
2021/10/04 01:01:51;;;;;;;;;;;;;;;16.58;76.04;100772.91;5075473;28;1910;-60
2021/10/04 01:04:16;;;;;;;;;;;;;;;16.57;76.24;100768.50;5075656;28;822;-59
2021/10/04 01:06:41;;;;;;;;;;;;;;;16.57;76.51;100765.81;5075129;28;1012;-59
2021/10/04 01:09:06;;;;;;;;;;;;;;;16.57;76.25;100781.97;5074708;28;1921;-60
2021/10/04 01:11:31;;;;;;;;;;;;;;;16.56;76.22;100780.25;5085444;28;1703;-60
2021/10/04 01:13:56;;;;;;;;;;;;;;;16.55;76.41;100778.56;5086094;28;1712;-60
2021/10/04 01:16:21;;;;;;;;;;;;;;;16.55;76.47;100784.78;5075272;28;1715;-61
2021/10/04 01:18:46;;;;;;;;;;;;;;;16.55;76.34;100786.63;5075121;28;1968;-61
2021/10/04 01:21:11;;;;;;;;;;;;;;;16.53;76.43;100786.75;5065683;28;1979;-60
2021/10/04 01:23:37;;;;;;;;;;;;;;;16.53;76.27;100799.34;5074915;28;950;-60
2021/10/04 01:26:02;;;;;;;;;;;;;;;16.53;76.14;100818.19;5075219;28;847;-59
2021/10/04 01:28:27;;;;;;;;;;;;;;;16.54;76.40;100826.13;5075074;28;1013;-60
2021/10/04 01:30:52;;;;;;;;;;;;;;;16.54;76.15;100809.13;5074807;28;1688;-60
2021/10/04 01:33:17;;;;;;;;;;;;;;;16.52;76.20;100806.59;5075050;28;1915;-60
2021/10/04 01:35:42;;;;;;;;;;;;;;;16.52;76.64;100797.66;5056655;28;1821;-61
2021/10/04 01:38:07;;;;;;;;;;;;;;;16.51;76.16;100807.56;5081473;28;1613;-61
2021/10/04 01:40:32;;;;;;;;;;;;;;;16.51;76.14;100799.50;5083097;28;1913;-61
2021/10/04 01:42:57;;;;;;;;;;;;;;;16.51;76.36;100814.78;5083398;28;1644;-60
2021/10/04 01:45:22;;;;;;;;;;;;;;;16.49;76.14;100809.53;5085299;28;1860;-61
2021/10/04 01:47:47;;;;;;;;;;;;;;;16.50;76.14;100807.69;5065581;28;1530;-60
2021/10/04 01:50:12;;;;;;;;;;;;;;;16.50;76.20;100815.78;5084615;28;1657;-60
2021/10/04 01:52:37;;;;;;;;;;;;;;;16.49;76.39;100828.38;5086191;28;1719;-60
2021/10/04 01:55:03;;;;;;;;;;;;;;;16.48;76.19;100815.91;5083349;28;1480;-61
2021/10/04 01:57:28;;;;;;;;;;;;;;;16.49;76.27;100819.44;5085830;28;1578;-61
2021/10/04 01:59:53;;;;;;;;;;;;;;;16.48;76.28;100815.91;5084341;28;1708;-61
2021/10/04 02:02:18;;;;;;;;;;;;;;;16.48;76.27;100807.84;5085187;28;1941;-60
2021/10/04 02:04:43;;;;;;;;;;;;;;;16.49;76.25;100812.22;5077336;28;1985;-60
2021/10/04 02:07:08;;;;;;;;;;;;;;;16.48;75.85;100821.28;5074724;28;840;-62
2021/10/04 02:09:33;;;;;;;;;;;;;;;16.48;75.90;100821.28;5077136;28;1711;-61
2021/10/04 02:11:59;;;;;;;;;;;;;;;16.48;76.17;100821.28;5067040;28;1409;-59
2021/10/04 02:14:24;;;;;;;;;;;;;;;16.48;76.11;100817.78;5083672;28;1555;-60
2021/10/04 02:16:49;;;;;;;;;;;;;;;16.47;76.30;100816.94;5087806;28;1838;-59
2021/10/04 02:19:14;;;;;;;;;;;;;;;16.47;76.34;100821.47;5082235;28;1745;-59
2021/10/04 02:21:39;;;;;;;;;;;;;;;16.47;76.44;100824.16;5082925;28;1917;-59
2021/10/04 02:24:04;;;;;;;;;;;;;;;16.46;76.42;100822.44;5081908;28;1600;-60
2021/10/04 02:26:29;;;;;;;;;;;;;;;16.45;76.15;100813.53;5084062;28;1711;-60
2021/10/04 02:28:54;;;;;;;;;;;;;;;16.46;76.23;100825.13;5084820;28;1425;-60
2021/10/04 02:31:19;;;;;;;;;;;;;;;16.46;76.15;100830.50;5089340;28;1619;-61
2021/10/04 02:33:44;;;;;;;;;;;;;;;16.45;76.26;100826.13;5085688;28;1707;-60
2021/10/04 02:36:09;;;;;;;;;;;;;;;16.44;76.50;100819.03;5088774;28;1655;-60
2021/10/04 02:38:34;;;;;;;;;;;;;;;16.44;75.87;100810.97;5089196;28;1575;-60
2021/10/04 02:41:00;;;;;;;;;;;;;;;16.44;76.39;100810.97;5070353;28;1910;-60
2021/10/04 02:43:25;;;;;;;;;;;;;;;16.44;76.27;100800.22;5088489;28;1673;-60
2021/10/04 02:45:50;;;;;;;;;;;;;;;16.44;76.43;100802.91;5087239;28;1639;-59
2021/10/04 02:48:15;;;;;;;;;;;;;;;16.43;76.47;100799.34;5078646;28;1698;-60
2021/10/04 02:50:40;;;;;;;;;;;;;;;16.43;76.16;100801.19;5077821;28;1063;-60
2021/10/04 02:53:05;;;;;;;;;;;;;;;16.43;76.27;100801.19;5077254;28;1902;-60
2021/10/04 02:55:30;;;;;;;;;;;;;;;16.42;76.15;100791.41;5077808;28;867;-59
2021/10/04 02:57:55;;;;;;;;;;;;;;;16.42;76.14;100802.19;5077555;28;1657;-60
2021/10/04 03:00:20;;;;;;;;;;;;;;;16.43;76.18;100801.19;5077567;28;977;-60
2021/10/04 03:02:45;;;;;;;;;;;;;;;16.44;76.32;100808.28;5079727;28;1906;-59
2021/10/04 03:05:10;;;;;;;;;;;;;;;16.43;76.34;100809.25;5087191;28;1974;-59
2021/10/04 03:07:35;;;;;;;;;;;;;;;16.43;76.14;100820.03;5097450;28;1120;-60
2021/10/04 03:10:00;;;;;;;;;;;;;;;16.43;76.27;100836.16;5097829;28;1025;-60
2021/10/04 03:12:25;;;;;;;;;;;;;;;16.43;76.29;100846.91;5097117;28;925;-61
2021/10/04 03:14:51;;;;;;;;;;;;;;;16.42;76.60;100848.75;5077371;28;2164;-58
2021/10/04 03:17:16;;;;;;;;;;;;;;;16.42;76.50;100840.69;5077285;28;1009;-58
2021/10/04 03:19:41;;;;;;;;;;;;;;;16.42;76.48;100839.84;5077323;28;926;-58
2021/10/04 03:22:06;;;;;;;;;;;;;;;16.42;76.47;100839.84;5076960;28;1882;-58
2021/10/04 03:24:31;;;;;;;;;;;;;;;16.40;76.56;100850.72;5076743;28;1916;-58
2021/10/04 03:26:56;;;;;;;;;;;;;;;16.40;76.42;100844.50;5077654;28;961;-59
2021/10/04 03:29:21;;;;;;;;;;;;;;;16.40;76.45;100849.88;5076678;28;1009;-58
2021/10/04 03:31:46;;;;;;;;;;;;;;;16.40;76.72;100853.41;5076703;28;2022;-58
2021/10/04 03:34:11;;;;;;;;;;;;;;;16.41;76.50;100859.66;5077347;28;839;-58
2021/10/04 03:36:36;;;;;;;;;;;;;;;16.40;76.48;100860.63;5076846;28;1021;-59
2021/10/04 03:39:01;;;;;;;;;;;;;;;16.40;76.30;100863.31;5076715;28;965;-58
2021/10/04 03:41:26;;;;;;;;;;;;;;;16.39;76.31;100862.47;5058713;28;1975;-58
2021/10/04 03:43:51;;;;;;;;;;;;;;;16.38;76.66;100859.91;5076301;28;1971;-59
2021/10/04 03:46:16;;;;;;;;;;;;;;;16.39;76.67;100859.78;5076914;28;1061;-58
2021/10/04 03:48:42;;;;;;;;;;;;;;;16.38;76.33;100868.84;5076757;28;1080;-58
2021/10/04 03:51:07;;;;;;;;;;;;;;;16.38;76.30;100863.47;5076243;28;1871;-58
2021/10/04 03:53:32;;;;;;;;;;;;;;;16.38;76.46;100868.00;5076947;28;1501;-60
2021/10/04 03:55:57;;;;;;;;;;;;;;;16.37;76.42;100863.59;5076130;28;1001;-60
2021/10/04 03:58:22;;;;;;;;;;;;;;;16.37;76.38;100867.13;5076553;28;1044;-61
2021/10/04 04:00:47;;;;;;;;;;;;;;;16.36;76.55;100870.81;5075677;28;2013;-61
2021/10/04 04:03:12;;;;;;;;;;;;;;;16.37;76.41;100871.66;5076275;28;922;-61
2021/10/04 04:05:37;;;;;;;;;;;;;;;16.36;76.46;100876.19;5075807;28;902;-61
2021/10/04 04:08:02;;;;;;;;;;;;;;;16.36;76.57;100884.25;5075546;28;866;-61
2021/10/04 04:10:27;;;;;;;;;;;;;;;16.38;76.25;100894.88;5075019;28;1911;-62
2021/10/04 04:12:52;;;;;;;;;;;;;;;16.37;76.42;100895.88;5075104;28;795;-62
2021/10/04 04:15:18;;;;;;;;;;;;;;;16.35;76.32;100895.16;5075132;28;803;-61
2021/10/04 04:17:43;;;;;;;;;;;;;;;16.34;76.51;100905.06;5075697;28;816;-61
2021/10/04 04:20:08;;;;;;;;;;;;;;;16.35;76.12;100919.34;5075840;28;1551;-61
2021/10/04 04:22:33;;;;;;;;;;;;;;;16.33;76.48;100909.59;5075574;28;2008;-61
2021/10/04 04:24:58;;;;;;;;;;;;;;;16.34;76.19;100921.19;5075888;28;882;-61
2021/10/04 04:27:23;;;;;;;;;;;;;;;16.33;76.02;100924.88;5076130;28;1157;-60
2021/10/04 04:29:48;;;;;;;;;;;;;;;16.32;76.64;100926.69;5076005;28;857;-60
2021/10/04 04:32:13;;;;;;;;;;;;;;;16.31;76.37;100927.69;5076032;28;1779;-59
2021/10/04 04:34:38;;;;;;;;;;;;;;;16.32;76.36;100928.53;5075270;28;851;-59
2021/10/04 04:37:03;;;;;;;;;;;;;;;16.31;76.62;100922.31;5077790;28;1174;-59
2021/10/04 04:39:28;;;;;;;;;;;;;;;16.30;76.55;100935.91;5085694;28;1327;-59
2021/10/04 04:41:54;;;;;;;;;;;;;;;16.30;76.23;100927.84;5076876;28;1953;-59
2021/10/04 04:44:19;;;;;;;;;;;;;;;16.29;76.05;100921.63;5074963;28;846;-60
2021/10/04 04:46:44;;;;;;;;;;;;;;;16.31;76.06;100922.31;5074924;28;1020;-60
2021/10/04 04:49:09;;;;;;;;;;;;;;;16.31;76.58;100924.16;5075164;28;1079;-59
2021/10/04 04:51:34;;;;;;;;;;;;;;;16.31;76.25;100916.94;5080533;28;1635;-59
2021/10/04 04:53:59;;;;;;;;;;;;;;;16.31;76.45;100925.00;5084528;28;1743;-59
2021/10/04 04:56:24;;;;;;;;;;;;;;;16.31;76.10;100918.75;5094783;28;1732;-58
2021/10/04 04:58:49;;;;;;;;;;;;;;;16.40;76.36;100920.66;5095319;28;936;-59
2021/10/04 05:01:14;;;;;;;;;;;;;;;16.39;76.22;100926.19;5082764;28;2012;-58
2021/10/04 05:03:39;;;;;;;;;;;;;;;16.33;76.22;100933.78;5075110;28;982;-58
2021/10/04 05:06:04;;;;;;;;;;;;;;;16.35;76.69;100938.19;5074951;28;1575;-58
2021/10/04 05:08:29;;;;;;;;;;;;;;;16.41;78.53;100933.13;5075215;28;1069;-60
2021/10/04 05:10:54;;;;;;;;;;;;;;;16.47;78.57;100948.75;5080962;28;1665;-60
2021/10/04 05:13:20;;;;;;;;;;;;;;;16.48;78.32;100960.34;5076931;28;1619;-60
2021/10/04 05:15:45;;;;;;;;;;;;;;;16.45;78.08;100949.84;5074996;28;1770;-61
2021/10/04 05:18:10;;;;;;;;;;;;;;;16.45;78.43;100955.22;5075237;28;922;-59
2021/10/04 05:20:35;;;;;;;;;;;;;;;16.42;78.24;100948.28;5074657;28;1906;-59
2021/10/04 05:23:00;;;;;;;;;;;;;;;16.43;78.06;100946.44;5077178;28;2022;-60
2021/10/04 05:25:25;;;;;;;;;;;;;;;16.39;78.12;100951.25;5074888;28;910;-59
2021/10/04 05:27:50;;;;;;;;;;;;;;;16.39;77.87;100958.44;5083988;28;1891;-59
2021/10/04 05:30:15;;;;;;;;;;;;;;;16.38;77.72;100962.13;5099395;28;1506;-59
2021/10/04 05:32:40;;;;;;;;;;;;;;;16.38;77.70;100960.28;5086421;28;1650;-59
2021/10/04 05:35:05;;;;;;;;;;;;;;;16.36;77.47;100954.19;5079860;28;1733;-59
2021/10/04 05:37:30;;;;;;;;;;;;;;;16.36;77.86;100959.56;5085500;28;1556;-59
2021/10/04 05:39:56;;;;;;;;;;;;;;;16.35;77.37;100965.06;5092149;28;1297;-59
2021/10/04 05:42:21;;;;;;;;;;;;;;;16.35;77.67;100957.84;5090365;28;1893;-59
2021/10/04 05:44:46;;;;;;;;;;;;;;;16.31;77.40;100965.34;5082006;28;1476;-60
2021/10/04 05:47:11;;;;;;;;;;;;;;;16.32;77.31;100967.03;5074628;28;1064;-59
2021/10/04 05:49:36;;;;;;;;;;;;;;;16.32;77.10;100971.56;5074819;28;2005;-59
2021/10/04 05:52:01;;;;;;;;;;;;;;;16.30;77.11;100971.69;5074546;28;1623;-59
2021/10/04 05:54:26;;;;;;;;;;;;;;;16.30;77.32;100966.31;5074679;28;1867;-59
2021/10/04 05:56:51;;;;;;;;;;;;;;;16.30;77.14;100965.50;5080041;28;1978;-58
2021/10/04 05:59:16;;;;;;;;;;;;;;;16.29;77.17;100978.09;5082499;28;1351;-60
2021/10/04 06:01:41;;;;;;;;;;;;;;;16.31;76.76;100984.16;5107085;28;1960;-59
2021/10/04 06:04:06;;;;;;;;;;;;;;;16.33;77.03;100989.41;5096980;28;922;-59
2021/10/04 06:06:31;;;;;;;;;;;;;;;16.31;76.78;100992.22;5084731;28;2069;-59
2021/10/04 06:08:56;;;;;;;;;;;;;;;16.30;76.95;100995.09;5078524;28;791;-59
2021/10/04 06:11:22;;;;;;;;;;;;;;;16.31;76.79;100992.22;5078725;28;1618;-59
2021/10/04 06:13:48;;;;;;;;;;;;;;;16.29;77.00;100993.38;5078533;28;842;-59
2021/10/04 06:16:13;;;;;;;;;;;;;;;16.27;76.89;101001.56;5077934;28;926;-59
2021/10/04 06:18:38;;;;;;;;;;;;;;;16.26;77.05;100999.03;5060178;28;1961;-59
2021/10/04 06:21:03;;;;;;;;;;;;;;;16.27;76.66;101006.97;5078078;28;1902;-59
2021/10/04 06:23:28;;;;;;;;;;;;;;;16.26;76.87;101007.09;5078327;28;894;-59
2021/10/04 06:25:53;;;;;;;;;;;;;;;16.26;76.67;101009.78;5077654;28;811;-59
2021/10/04 06:28:18;;;;;;;;;;;;;;;16.25;76.92;101011.59;5077600;28;815;-59
2021/10/04 06:30:43;;;;;;;;;;;;;;;16.24;76.63;101012.59;5077204;28;1792;-59
2021/10/04 06:33:08;;;;;;;;;;;;;;;16.23;77.02;101013.56;5077718;28;1001;-59
2021/10/04 06:35:34;;;;;;;;;;;;;;;16.23;76.44;101013.56;5077562;28;1009;-59
2021/10/04 06:37:59;;;;;;;;;;;;;;;16.24;76.96;101017.97;5077345;28;835;-59
2021/10/04 06:40:25;;;;;;;;;;;;;;;16.23;76.61;101021.66;5065337;28;1807;-59
2021/10/04 06:42:50;;;;;;;;;;;;;;;16.24;76.66;101034.09;5059938;28;1894;-59
2021/10/04 06:45:15;;;;;;;;;;;;;;;16.23;76.70;101035.09;5076979;28;1407;-59
2021/10/04 06:47:40;;;;;;;;;;;;;;;16.22;76.87;101036.06;5077398;28;842;-59
2021/10/04 06:50:05;;;;;;;;;;;;;;;16.20;76.38;101043.41;5077067;28;1869;-58
2021/10/04 06:52:31;;;;;;;;;;;;;;;16.20;76.48;101043.41;5077082;28;851;-59
2021/10/04 06:54:56;;;;;;;;;;;;;;;16.20;76.37;101038.03;5077479;28;878;-59
2021/10/04 06:57:21;;;;;;;;;;;;;;;16.20;75.77;101043.41;5077136;28;1382;-59
2021/10/04 06:59:46;;;;;;;;;;;;;;;16.21;76.06;101038.88;5077149;28;1751;-59
2021/10/04 07:02:11;;;;;;;;;;;;;;;16.20;75.92;101056.84;5076567;28;1945;-59
2021/10/04 07:04:37;;;;;;;;;;;;;;;16.20;76.19;101058.69;5076882;28;1765;-59
2021/10/04 07:07:02;;;;;;;;;;;;;;;16.18;75.87;101061.50;5076801;28;1961;-59
2021/10/04 07:09:27;;;;;;;;;;;;;;;16.20;75.99;101067.59;5077009;28;918;-58
2021/10/04 07:11:52;;;;;;;;;;;;;;;16.33;74.83;101057.50;5076731;28;1780;-59
2021/10/04 07:14:17;;;;;;;;;;;;;;;16.46;74.25;101064.53;5076563;28;870;-59
2021/10/04 07:16:42;;;;;;;;;;;;;;;16.57;74.22;101067.16;5072315;28;1754;-59
2021/10/04 07:19:07;;;;;;;;;;;;;;;16.64;74.95;101069.22;5069903;28;1850;-59
2021/10/04 07:21:32;;;;;;;;;;;;;;;16.72;74.64;101062.28;5068595;28;1981;-58
2021/10/04 07:23:57;;;;;;;;;;;;;;;16.82;74.61;101065.91;5076500;28;1601;-58
2021/10/04 07:26:23;;;;;;;;;;;;;;;16.89;74.32;101064.38;5076225;28;1309;-58
2021/10/04 07:28:48;;;;;;;;;;;;;;;16.97;74.10;101064.56;5076506;28;819;-58
2021/10/04 07:31:13;;;;;;;;;;;;;;;17.02;73.80;101068.53;5076500;28;1060;-58
2021/10/04 07:33:38;;;;;;;;;;;;;;;17.07;73.55;101061.88;5076471;28;819;-56
2021/10/04 07:36:06;;;;;;;;;;;;;;;17.14;73.37;101066.59;5076232;28;1894;-58
2021/10/04 07:38:31;;;;;;;;;;;;;;;17.19;72.73;101075.13;5076392;28;1918;-58
2021/10/04 07:40:58;;;;;;;;;;;;;;;17.25;73.15;101084.50;5076353;28;1955;-58
2021/10/04 07:43:23;;;;;;;;;;;;;;;17.28;73.10;101073.44;5076106;28;989;-57
2021/10/04 07:45:48;;;;;;;;;;;;;;;17.31;72.79;101068.66;5076069;28;838;-58
2021/10/04 07:48:13;;;;;;;;;;;;;;;17.34;72.54;101072.91;5076167;28;1785;-58
2021/10/04 07:50:38;;;;;;;;;;;;;;;17.38;71.99;101068.94;5076102;28;799;-56
2021/10/04 07:53:03;;;;;;;;;;;;;;;17.43;72.11;101068.53;5076222;28;930;-57
2021/10/04 07:55:29;;;;;;;;;;;;;;;17.47;71.71;101072.66;5075965;28;1060;-57
2021/10/04 07:57:54;;;;;;;;;;;;;;;17.52;71.41;101068.56;5076094;28;1001;-57
2021/10/04 08:00:19;;;;;;;;;;;;;;;17.54;71.17;101071.97;5075966;28;1893;-59
2021/10/04 08:02:44;;;;;;;;;;;;;;;17.57;71.47;101068.13;5076314;28;1957;-58
2021/10/04 08:05:09;;;;;;;;;;;;;;;17.60;70.94;101074.09;5075458;28;1982;-58
2021/10/04 08:07:34;;;;;;;;;;;;;;;17.66;71.39;101072.72;5076102;28;909;-58
2021/10/04 08:10:00;;;;;;;;;;;;;;;17.67;71.73;101083.38;5061040;28;2037;-58
2021/10/04 08:12:25;;;;;;;;;;;;;;;17.67;71.82;101085.19;5073195;28;2077;-58
2021/10/04 08:14:51;;;;;;;;;;;;;;;17.66;71.88;101086.19;5066060;28;1966;-59
2021/10/04 08:17:16;;;;;;;;;;;;;;;17.67;71.86;101087.91;5056431;28;862;-58
2021/10/04 08:19:41;;;;;;;;;;;;;;;17.66;71.18;101086.19;5059405;28;1703;-59
2021/10/04 08:22:06;;;;;;;;;;;;;;;17.68;71.88;101087.75;5095283;28;1909;-58
2021/10/04 08:24:31;;;;;;;;;;;;;;;17.75;70.73;101081.78;5066233;28;1933;-58
2021/10/04 08:26:56;;;;;;;;;;;;;;;17.75;71.30;101079.09;5075285;28;1231;-59
2021/10/04 08:29:21;;;;;;;;;;;;;;;17.74;71.18;101074.69;5073019;28;1883;-58
2021/10/04 08:31:46;;;;;;;;;;;;;;;17.75;70.44;101071.00;5055357;28;1886;-58
2021/10/04 08:34:11;;;;;;;;;;;;;;;17.71;69.64;101077.69;5067029;28;1948;-59
2021/10/04 08:36:37;;;;;;;;;;;;;;;17.93;69.79;101077.41;5074503;28;1594;-58
2021/10/04 08:39:02;;;;;;;;;;;;;;;17.90;70.16;101069.63;5073907;28;1496;-57
